Buena Park, CA (90620)

11:20 AM PDT on September 22, 2014 (GMT -0700)
Valley View / Cerritos | Change Station
CLOSE
Current Station
Personal Weather Station
Location: Buena Park, CA
Elevation: 55 ft
Nearby Weather Stations

Elev 55 ft 33.81 °N, 118.03 °W | Updated 2 seconds ago

Clear
Clear
78.9 °F
Feels Like 81 °F
N
4.0
Wind Variable Wind from South
Gusts 6.0 mph

Today
High -- | Low -- °F
--% Chance of Precip.
Yesterday
High -- | Low -- °F
Precip. -- in
6:40 AM 6:48 PM
Waning Crescent, 2% visible
Pressure 29.98 in
Visibility 10.0 miles
Clouds Clear
Heat Index 81 °F
Dew Point 68 °F
Humidity 69%
Rainfall 0.00 in
Snow Depth 0 in , 0 in , 0 in
UV 4.2 out of 12
Pollen 6.60 out of 12
Ozone Good
PM2.5 Moderate
Flu Activity Not available.
METAR KFUL 221753Z 20005KT 10SM CLR 25/16 A2998 RMK AO2 SLP151 T02500156 10250 20161 51004

More Conditions Fewer Conditions

Pressure 29.98 in
Visibility 10.0 miles
Clouds Clear
Heat Index 81 °F
Dew Point 68 °F
Humidity 69%
Rainfall 0.00 in
Snow Depth 0 in , 0 in , 0 in
UV 4.2 out of 12
Pollen 6.60 out of 12
Ozone Good
PM2.5 Moderate
Flu Activity Not available.
METAR KFUL 221753Z 20005KT 10SM CLR 25/16 A2998 RMK AO2 SLP151 T02500156 10250 20161 51004

More Conditions Fewer Conditions

10-Day Weather Forecast

Almanac

Astronomy

Sep. 22, 2014 Rise Set
Actual Time 6:40 AM PDT 6:48 PM PDT
Civil Twilight 6:15 AM PDT 7:13 PM PDT
Nautical Twilight 5:46 AM PDT 7:42 PM PDT
Astronomical Twilight 5:16 AM PDT 8:11 PM PDT
Moon 5:15 AM PDT 5:57 PM PDT
Length of Visible Light 12h 58m
Length of Day
12h 08m
Tomorrow will be 2m 5s shorter.
Waning Crescent, 2% of the Moon is Illuminated
Today
Waning Crescent
Sep 24
New
Oct 1
First Quarter
Oct 8
Full
Oct 15
Last Quarter

Today's Extremes

State Highs State Lows

Community

WunderPhotos

Upload Photos

1,755,506 photos uploaded!

WunderBlogs® & News

By Dr. Jeff Masters
Director of Meteorology, Weather Underground
By Kari Strenfel
Meteorologist, Weather Underground
By Christopher C. Burt
Weather Historian, Weather Underground
September 22, 2014
September 22, 2014
September 22, 2014

Nearby

Air Quality

  Air Quality AQ Index Pollutant
Yesterday Good
PM10
Yesterday Good
OZONE
Current Moderate
PM2.5
Current Good
OZONE
Monday Good
PM10
Monday Good
OZONE
Monday Good
CO
Monday Good
NO2

Snow Depth

Station Depth Elevation
Fallen Leaf 0 in 6300 ft
CSS Lab 0 in 6900 ft
Tahoe City Cross 0 in 6750 ft
Spratt Creek 1 in 6200 ft
Adin Mountain 0 in 6200 ft

Earthquake Activity

City Distance Mag. Time & Date
Big Bear Lake, California 63 miles 2.5 7:26 AM PDT
2014-09-22
Borrego Springs, California 102 miles 2.6 7:34 AM PDT
2014-09-21
Aguanga, California 74 miles 2.5 1:38 AM PDT
2014-09-19
Minimum magnitude displayed is 2.5.

Coastal Water Temperatures

Place Temperature
Santa Monica Pier 70.0 °F
Los Angeles, CA 66.9 °F
La Jolla, CA 69.1 °F

Nearby Weather Stations